Arlington, GA

6:56 PM EDT on July 29, 2014 (GMT -0400)
Southwest Georgia Regional (KABY) Elev 194 ft | 31.54 °N, 84.19 °W | Change Station

Current weather conditions updated 1 hour ago

Mostly Cloudy
Mostly Cloudy
89 °F
Feels Like 88 °F
N
13
Wind Variable Wind from West
Gusts 17 mph

Tomorrow is forecast to be nearly the same temperature as today.

Today
High -- | Low -- °F
--% Chance of Precip.
Yesterday
High -- | Low -- °F
Precip. -- in
6:53 AM 8:36 PM
Waxing Crescent, 8% visible
Pressure 29.96 in
Visibility 10.0 miles
Clouds Mostly Cloudy 7000 ft
Heat Index 88 °F
Dew Point 57 °F
Humidity 34%
Rainfall 0.00 in
Snow Depth Not available.
UV 2 out of 12
Pollen 6.00 out of 12
Air Quality Not available.
Flu Activity Not available.
METAR KABY 292153Z 28011G15KT 10SM BKN070 32/14 A2996 RMK AO2 SLP143 T03170139

More Conditions Fewer Conditions

Pressure 29.96 in
Visibility 10.0 miles
Clouds Mostly Cloudy 7000 ft
Heat Index 88 °F
Dew Point 57 °F
Humidity 34%
Rainfall 0.00 in
Snow Depth Not available.
UV 2 out of 12
Pollen 6.00 out of 12
Air Quality Not available.
Flu Activity Not available.
METAR KABY 292153Z 28011G15KT 10SM BKN070 32/14 A2996 RMK AO2 SLP143 T03170139

More Conditions Fewer Conditions

10-Day Weather Forecast

Almanac

Astronomy

Jul. 29, 2014 Rise Set
Actual Time 6:53 AM EDT 8:36 PM EDT
Civil Twilight 6:26 AM EDT 9:03 PM EDT
Nautical Twilight 5:54 AM EDT 9:35 PM EDT
Astronomical Twilight 5:20 AM EDT 10:09 PM EDT
Moon 9:16 AM EDT 10:03 PM EDT
Length of Visible Light 14h 36m
Length of Day
13h 43m
Tomorrow will be 1m 22s shorter.
Waxing Crescent, 8% of the Moon is Illuminated
Today
Waxing Crescent
Aug 3
First Quarter
Aug 10
Full
Aug 17
Last Quarter
Aug 25
New

Today's Extremes

State Highs State Lows

Community

WunderPhotos

Upload Photos

1,738,909 photos uploaded!

Nearby

Snow Depth

Station Depth Elevation
No new snow has been reported.

Earthquake Activity

City Distance Mag. Time & Date
No recent earthquake activity has been reported nearby.
Minimum magnitude displayed is 2.5.

Coastal Water Temperatures

Place Temperature
No Stations Reporting

Nearby Weather Stations

There are no personal weather stations in this area.